createdAt,value
2019-01-23T00:01:47.642Z,72.33
2019-01-23T00:04:18.062Z,72.82
2019-01-23T00:06:48.506Z,72.74
2019-01-23T00:09:19.063Z,72.66
2019-01-23T00:11:49.482Z,72.68
2019-01-23T00:14:19.941Z,72.54
2019-01-23T00:16:50.360Z,71.64
2019-01-23T00:19:20.774Z,72.29
2019-01-23T00:21:51.236Z,71.68
2019-01-23T00:24:21.652Z,72.09
2019-01-23T00:26:52.100Z,72.36
2019-01-23T00:29:22.559Z,72.53
2019-01-23T00:31:53.015Z,71.86
2019-01-23T00:34:23.463Z,72.21
2019-01-23T00:36:53.978Z,72.16
2019-01-23T00:39:24.418Z,72.19
2019-01-23T00:41:54.934Z,72.15
2019-01-23T00:44:25.432Z,72.18
2019-01-23T00:46:55.955Z,71.91
2019-01-23T00:49:26.407Z,71.24
2019-01-23T00:51:56.915Z,71.65
2019-01-23T00:54:27.437Z,71.67
2019-01-23T00:56:57.859Z,71.65
2019-01-23T00:59:28.315Z,71.19
2019-01-23T01:01:58.734Z,71.65
2019-01-23T01:04:29.191Z,72.02
2019-01-23T01:06:59.641Z,71.71
2019-01-23T01:09:30.089Z,72.19
2019-01-23T01:12:00.505Z,72.30
2019-01-23T01:14:30.925Z,71.52
2019-01-23T01:17:01.341Z,72.27
2019-01-23T01:19:31.787Z,72.11
2019-01-23T01:22:02.196Z,72.36
2019-01-23T01:24:32.650Z,72.08
2019-01-23T01:27:03.456Z,71.75
2019-01-23T01:29:33.917Z,72.19
2019-01-23T01:32:04.432Z,72.04
2019-01-23T01:34:34.897Z,72.36
2019-01-23T01:37:05.450Z,72.40
2019-01-23T01:39:35.862Z,71.84
2019-01-23T01:42:06.435Z,72.05
2019-01-23T01:44:36.954Z,72.28
2019-01-23T01:47:07.381Z,71.75
2019-01-23T01:49:37.945Z,71.45
2019-01-23T01:52:08.363Z,71.60
2019-01-23T01:54:38.831Z,71.49
2019-01-23T01:57:09.279Z,71.64
2019-01-23T01:59:39.902Z,72.05
2019-01-23T02:02:10.457Z,71.97
2019-01-23T02:04:40.877Z,71.69
2019-01-23T02:07:11.384Z,71.96
2019-01-23T02:09:45.461Z,72.11
2019-01-23T02:12:13.947Z,71.99
2019-01-23T02:14:44.402Z,72.13
2019-01-23T02:17:14.808Z,71.48
2019-01-23T02:19:45.464Z,71.34
2019-01-23T02:22:15.914Z,71.67
2019-01-23T02:24:46.369Z,71.29
2019-01-23T02:27:16.787Z,71.25
2019-01-23T02:29:47.262Z,71.19
2019-01-23T02:32:17.723Z,71.26
2019-01-23T02:34:48.139Z,70.93
2019-01-23T02:37:18.605Z,71.11
2019-01-23T02:39:49.070Z,70.89
2019-01-23T02:42:19.492Z,71.05
2019-01-23T02:44:49.963Z,70.68
2019-01-23T02:47:20.411Z,71.05
2019-01-23T02:49:50.830Z,71.75
2019-01-23T02:52:21.383Z,71.86
2019-01-23T02:54:51.894Z,71.43
2019-01-23T02:57:22.355Z,71.21
2019-01-23T02:59:52.771Z,70.98
2019-01-23T03:02:23.335Z,71.38
2019-01-23T03:04:53.808Z,71.66
2019-01-23T03:07:24.294Z,71.80
2019-01-23T03:09:54.752Z,72.42
2019-01-23T03:12:25.163Z,72.77
2019-01-23T03:14:55.703Z,72.31
2019-01-23T03:17:26.112Z,72.97
2019-01-23T03:19:56.563Z,73.13
2019-01-23T03:22:26.986Z,73.60
2019-01-23T03:24:57.452Z,73.17
2019-01-23T03:27:27.865Z,72.92
2019-01-23T03:29:58.286Z,72.62
2019-01-23T03:32:29.265Z,73.46
2019-01-23T03:34:59.676Z,73.17
2019-01-23T03:37:30.086Z,72.91
2019-01-23T03:40:00.549Z,73.21
2019-01-23T03:42:30.958Z,72.98
2019-01-23T03:45:01.419Z,73.76
2019-01-23T03:47:31.827Z,73.71
2019-01-23T03:50:02.291Z,74.03
2019-01-23T03:52:32.704Z,74.14
2019-01-23T03:55:03.302Z,75.04
2019-01-23T03:57:33.792Z,74.18
2019-01-23T04:00:05.360Z,74.26
2019-01-23T04:02:35.953Z,74.57
2019-01-23T04:05:08.151Z,75.01
2019-01-23T04:07:38.715Z,74.46
2019-01-23T04:10:11.389Z,73.75
2019-01-23T04:12:41.848Z,73.58
2019-01-23T04:15:13.374Z,73.95
2019-01-23T04:17:43.943Z,73.54
2019-01-23T04:20:16.352Z,73.83
2019-01-23T04:22:46.895Z,73.56
2019-01-23T04:25:17.436Z,73.52
2019-01-23T04:27:47.979Z,72.99
2019-01-23T04:30:23.542Z,72.88
2019-01-23T04:32:54.220Z,74.22
2019-01-23T04:35:24.630Z,73.97
2019-01-23T04:37:55.029Z,73.92
2019-01-23T04:40:25.484Z,72.93
2019-01-23T04:42:55.994Z,73.09
2019-01-23T04:45:26.566Z,73.39
2019-01-23T04:47:57.057Z,73.28
2019-01-23T04:50:27.744Z,72.97
2019-01-23T04:53:06.155Z,72.44
2019-01-23T04:55:38.362Z,72.62
2019-01-23T04:58:08.908Z,73.22
2019-01-23T05:00:39.369Z,73.16
2019-01-23T05:03:09.801Z,72.13
2019-01-23T05:05:40.263Z,72.62
2019-01-23T05:08:10.688Z,72.13
2019-01-23T05:10:41.139Z,72.74
2019-01-23T05:13:11.726Z,72.87
2019-01-23T05:15:42.184Z,72.06
2019-01-23T05:18:12.598Z,72.27
2019-01-23T05:20:43.031Z,72.22
2019-01-23T05:23:13.479Z,72.05
2019-01-23T05:25:43.882Z,71.95
2019-01-23T05:28:14.286Z,71.72
2019-01-23T05:30:44.736Z,71.40
2019-01-23T05:33:15.136Z,71.66
2019-01-23T05:35:45.569Z,71.43
2019-01-23T05:38:16.034Z,70.92
2019-01-23T05:40:46.495Z,71.05
2019-01-23T05:43:16.954Z,71.21
2019-01-23T05:45:47.554Z,71.68
2019-01-23T05:48:18.014Z,71.48
2019-01-23T05:50:48.454Z,71.46
2019-01-23T05:53:19.663Z,71.98
2019-01-23T05:55:50.120Z,71.63
2019-01-23T05:58:20.543Z,71.94
2019-01-23T06:00:51.016Z,71.77
2019-01-23T06:03:21.433Z,71.41
2019-01-23T06:05:51.898Z,71.57
2019-01-23T06:08:22.332Z,71.17
2019-01-23T06:10:52.806Z,71.87
2019-01-23T06:13:23.228Z,71.69
2019-01-23T06:15:53.675Z,71.58
2019-01-23T06:18:24.240Z,70.89
2019-01-23T06:20:55.651Z,71.46
2019-01-23T06:23:26.086Z,71.40
2019-01-23T06:25:56.500Z,71.08
2019-01-23T06:28:26.949Z,71.28
2019-01-23T06:30:57.366Z,71.66
2019-01-23T06:33:27.816Z,71.49
2019-01-23T06:35:58.272Z,72.13
2019-01-23T06:38:28.742Z,71.56
2019-01-23T06:40:59.147Z,71.22
2019-01-23T06:43:29.623Z,71.67
2019-01-23T06:46:00.038Z,71.47
2019-01-23T06:48:30.467Z,71.28
2019-01-23T06:51:00.947Z,71.31
2019-01-23T06:53:31.378Z,71.26
2019-01-23T06:56:01.861Z,70.44
2019-01-23T06:58:32.282Z,70.32
2019-01-23T07:01:02.731Z,70.50
2019-01-23T07:03:33.199Z,70.67
2019-01-23T07:06:03.714Z,70.36
2019-01-23T07:08:34.184Z,69.89
2019-01-23T07:11:04.699Z,69.58
2019-01-23T07:13:35.126Z,69.55
2019-01-23T07:16:05.918Z,69.15
2019-01-23T07:18:36.347Z,68.85
2019-01-23T07:21:06.770Z,69.32
2019-01-23T07:23:37.526Z,69.43
2019-01-23T07:26:08.066Z,69.16
2019-01-23T07:28:38.495Z,68.91
2019-01-23T07:31:08.940Z,68.94
2019-01-23T07:33:39.428Z,69.00
2019-01-23T07:36:09.889Z,69.05
2019-01-23T07:38:40.343Z,68.75
2019-01-23T07:41:10.771Z,68.54
2019-01-23T07:43:41.235Z,68.61
2019-01-23T07:46:11.661Z,68.29
2019-01-23T07:48:42.428Z,67.65
2019-01-23T07:51:12.901Z,67.27
2019-01-23T07:53:43.469Z,67.21
2019-01-23T07:56:13.892Z,67.22
2019-01-23T07:58:44.364Z,67.21
2019-01-23T08:01:14.793Z,66.99
2019-01-23T08:03:45.224Z,67.12
2019-01-23T08:06:15.679Z,66.86
2019-01-23T08:08:46.138Z,66.86
2019-01-23T08:11:16.736Z,66.20
2019-01-23T08:13:47.274Z,66.45
2019-01-23T08:16:17.776Z,66.05
2019-01-23T08:18:48.229Z,65.73
2019-01-23T08:21:18.989Z,65.50
2019-01-23T08:23:49.402Z,65.46
2019-01-23T08:26:19.877Z,66.06
2019-01-23T08:28:50.309Z,66.21
2019-01-23T08:31:20.856Z,66.37
2019-01-23T08:33:51.386Z,66.15
2019-01-23T08:36:21.826Z,65.67
2019-01-23T08:38:52.237Z,64.97
2019-01-23T08:41:22.796Z,65.11
2019-01-23T08:43:53.215Z,64.86
2019-01-23T08:46:23.680Z,63.89
2019-01-23T08:48:54.098Z,63.59
2019-01-23T08:51:24.568Z,63.82
2019-01-23T08:53:55.001Z,64.20
2019-01-23T08:56:25.468Z,63.98
2019-01-23T08:58:55.895Z,63.51
2019-01-23T09:01:26.393Z,63.92
2019-01-23T09:03:56.925Z,64.23
2019-01-23T09:06:27.332Z,63.46
2019-01-23T09:08:57.791Z,63.31
2019-01-23T09:11:28.324Z,62.73
2019-01-23T09:13:58.743Z,62.96
2019-01-23T09:16:29.168Z,63.48
2019-01-23T09:18:59.582Z,62.83
2019-01-23T09:21:30.100Z,63.01
2019-01-23T09:24:00.574Z,63.28
2019-01-23T09:26:31.028Z,63.06
2019-01-23T09:29:01.458Z,63.09
2019-01-23T09:31:53.701Z,63.21
2019-01-23T09:34:46.710Z,63.21
2019-01-23T09:37:39.927Z,63.25
2019-01-23T09:40:17.046Z,63.15
2019-01-23T09:43:10.591Z,62.38
2019-01-23T09:46:19.562Z,62.80
2019-01-23T09:49:21.248Z,62.07
2019-01-23T09:52:34.350Z,63.04
2019-01-23T09:55:06.190Z,62.47
2019-01-23T09:57:39.520Z,63.27
2019-01-23T10:00:14.498Z,63.65
2019-01-23T10:02:44.918Z,63.18
2019-01-23T10:05:15.486Z,62.30
2019-01-23T10:07:46.084Z,62.43
2019-01-23T10:10:17.891Z,62.84
2019-01-23T10:12:48.552Z,63.21
2019-01-23T10:15:22.651Z,62.47
2019-01-23T10:17:53.067Z,62.82
2019-01-23T10:20:23.535Z,63.02
2019-01-23T10:22:54.010Z,62.63
2019-01-23T10:25:24.492Z,62.59
2019-01-23T10:27:55.312Z,62.30
2019-01-23T10:30:25.863Z,62.83
2019-01-23T10:32:56.357Z,62.51
2019-01-23T10:35:26.868Z,62.22
2019-01-23T10:37:57.285Z,61.98
2019-01-23T10:40:27.737Z,62.28
2019-01-23T10:42:58.262Z,62.34
2019-01-23T10:45:28.726Z,62.75
2019-01-23T10:47:59.191Z,62.88
2019-01-23T10:50:29.719Z,62.64
2019-01-23T10:53:00.181Z,62.34
2019-01-23T10:55:30.598Z,61.96
2019-01-23T10:58:01.331Z,61.98
2019-01-23T11:00:31.840Z,61.91
2019-01-23T11:03:02.319Z,62.40
2019-01-23T11:05:32.902Z,61.89
2019-01-23T11:08:03.443Z,62.38
2019-01-23T11:10:33.920Z,62.43
2019-01-23T11:13:04.446Z,62.34
2019-01-23T11:15:34.899Z,62.71
2019-01-23T11:18:05.955Z,62.57
2019-01-23T11:20:36.384Z,62.34
2019-01-23T11:23:07.114Z,62.28
2019-01-23T11:25:37.738Z,62.23
2019-01-23T11:28:08.206Z,62.09
2019-01-23T11:30:38.882Z,62.68
2019-01-23T11:33:10.742Z,62.35
2019-01-23T11:35:41.304Z,62.40
2019-01-23T11:38:11.985Z,62.75
2019-01-23T11:40:42.616Z,62.50
2019-01-23T11:43:13.167Z,63.03
2019-01-23T11:45:43.712Z,63.39
2019-01-23T11:48:14.223Z,64.43
2019-01-23T11:50:44.700Z,63.77
2019-01-23T11:53:15.285Z,63.99
2019-01-23T11:55:45.893Z,63.70
2019-01-23T11:58:16.448Z,63.56
2019-01-23T12:00:47.088Z,64.07
2019-01-23T12:03:21.067Z,64.11
2019-01-23T12:05:49.781Z,64.03
2019-01-23T12:08:21.238Z,63.96
2019-01-23T12:10:51.875Z,64.62
2019-01-23T12:13:22.343Z,64.04
2019-01-23T12:15:52.770Z,64.57
2019-01-23T12:18:23.223Z,65.03
2019-01-23T12:20:53.651Z,64.10
2019-01-23T12:23:24.304Z,64.23
2019-01-23T12:25:54.858Z,63.92
2019-01-23T12:28:25.302Z,64.35
2019-01-23T12:30:55.676Z,64.45
2019-01-23T12:33:26.359Z,64.38
2019-01-23T12:35:56.790Z,64.40
2019-01-23T12:38:27.358Z,64.58
2019-01-23T12:40:58.092Z,64.60
2019-01-23T12:43:28.727Z,64.69
2019-01-23T12:45:59.214Z,64.52
2019-01-23T12:48:29.687Z,64.39
2019-01-23T12:51:00.236Z,64.21
2019-01-23T12:53:30.703Z,64.19
2019-01-23T12:56:01.144Z,64.17
2019-01-23T12:58:31.726Z,64.19
2019-01-23T13:01:02.382Z,64.25
2019-01-23T13:03:32.825Z,64.49
2019-01-23T13:06:03.497Z,64.64
2019-01-23T13:08:33.963Z,64.89
2019-01-23T13:11:04.471Z,64.63
2019-01-23T13:13:34.882Z,64.83
2019-01-23T13:16:05.563Z,65.05
2019-01-23T13:18:36.056Z,65.06
2019-01-23T13:21:06.645Z,64.81
2019-01-23T13:23:37.081Z,64.75
2019-01-23T13:26:07.645Z,65.37
2019-01-23T13:28:38.074Z,64.96
2019-01-23T13:31:08.501Z,64.92
2019-01-23T13:33:39.080Z,64.58
2019-01-23T13:36:10.701Z,64.79
2019-01-23T13:38:41.134Z,65.12
2019-01-23T13:41:11.709Z,65.00
2019-01-23T13:43:42.169Z,65.40
2019-01-23T13:46:12.826Z,65.44
2019-01-23T13:48:43.603Z,64.96
2019-01-23T13:51:14.343Z,64.60
2019-01-23T13:53:45.051Z,64.89
2019-01-23T13:56:18.121Z,65.20
2019-01-23T13:58:49.257Z,64.96
2019-01-23T14:01:19.924Z,65.01
2019-01-23T14:03:52.025Z,64.99
2019-01-23T14:06:22.508Z,65.02
2019-01-23T14:08:53.158Z,65.11
2019-01-23T14:11:23.690Z,64.88
2019-01-23T14:13:54.273Z,65.02
2019-01-23T14:16:24.818Z,65.13
2019-01-23T14:18:55.356Z,65.23
2019-01-23T14:21:25.839Z,65.59
2019-01-23T14:23:56.335Z,65.59
2019-01-23T14:26:26.805Z,65.96
2019-01-23T14:28:57.306Z,66.59
2019-01-23T14:31:27.765Z,66.70
2019-01-23T14:33:58.245Z,66.33
2019-01-23T14:36:28.839Z,66.27
2019-01-23T14:38:59.290Z,66.45
2019-01-23T14:41:29.743Z,66.17
2019-01-23T14:44:00.202Z,65.73
2019-01-23T14:46:30.748Z,65.87
2019-01-23T14:49:01.338Z,65.66
2019-01-23T14:51:31.821Z,66.24
2019-01-23T14:54:02.238Z,66.75
2019-01-23T14:56:32.698Z,66.37
2019-01-23T14:59:03.114Z,66.28
2019-01-23T15:01:33.613Z,66.32
2019-01-23T15:04:04.085Z,66.18
2019-01-23T15:06:34.536Z,66.41
2019-01-23T15:09:07.614Z,66.43
2019-01-23T15:11:38.029Z,66.21
2019-01-23T15:14:08.600Z,66.06
2019-01-23T15:16:39.024Z,66.05
2019-01-23T15:19:09.519Z,66.10
2019-01-23T15:21:39.963Z,65.97
2019-01-23T15:24:10.371Z,66.01
2019-01-23T15:26:40.869Z,65.81
2019-01-23T15:29:11.346Z,66.31
2019-01-23T15:31:41.812Z,66.49
2019-01-23T15:34:12.506Z,66.42
2019-01-23T15:36:43.006Z,66.59
2019-01-23T15:39:13.448Z,66.65
2019-01-23T15:41:43.910Z,66.51
2019-01-23T15:44:14.328Z,66.44
2019-01-23T15:46:44.784Z,66.83
2019-01-23T15:49:15.215Z,66.69
2019-01-23T15:51:45.715Z,66.81
2019-01-23T15:54:16.138Z,66.72
2019-01-23T15:56:46.591Z,66.94
2019-01-23T15:59:17.015Z,66.88
2019-01-23T16:01:47.566Z,66.73
2019-01-23T16:04:18.018Z,66.75
2019-01-23T16:06:48.459Z,66.87
2019-01-23T16:09:19.043Z,67.02
2019-01-23T16:11:49.603Z,67.55
2019-01-23T16:14:20.030Z,67.54
2019-01-23T16:16:50.495Z,67.54
2019-01-23T16:19:20.918Z,67.83
2019-01-23T16:21:51.350Z,67.90
2019-01-23T16:24:21.822Z,68.32
2019-01-23T16:26:52.342Z,68.63
2019-01-23T16:29:22.808Z,68.61
2019-01-23T16:31:53.281Z,68.59
2019-01-23T16:34:23.701Z,68.63
2019-01-23T16:36:54.366Z,68.84
2019-01-23T16:39:24.774Z,69.01
2019-01-23T16:41:55.189Z,68.87
2019-01-23T16:44:25.645Z,69.60
2019-01-23T16:46:56.108Z,69.58
2019-01-23T16:49:26.536Z,69.84
2019-01-23T16:51:56.983Z,70.06
2019-01-23T16:54:27.416Z,70.00
2019-01-23T16:56:57.857Z,70.04
2019-01-23T16:59:28.263Z,70.19
2019-01-23T17:01:58.811Z,70.38
2019-01-23T17:04:29.233Z,70.42
2019-01-23T17:06:59.775Z,70.76
2019-01-23T17:09:30.239Z,70.67
2019-01-23T17:12:00.650Z,70.71
2019-01-23T17:14:31.055Z,71.09
2019-01-23T17:17:01.535Z,71.11
2019-01-23T17:19:31.947Z,72.03
2019-01-23T17:22:02.401Z,72.31
2019-01-23T17:24:32.858Z,71.75
2019-01-23T17:27:03.424Z,72.24
2019-01-23T17:29:33.850Z,72.29
2019-01-23T17:32:04.403Z,72.07
2019-01-23T17:34:34.820Z,71.97
2019-01-23T17:37:05.371Z,71.96
2019-01-23T17:39:35.786Z,71.75
2019-01-23T17:42:06.420Z,71.98
2019-01-23T17:44:36.864Z,71.98
2019-01-23T17:47:07.464Z,71.79
2019-01-23T17:49:37.924Z,72.08
2019-01-23T17:52:08.343Z,71.94
2019-01-23T17:54:38.817Z,71.89
2019-01-23T17:57:09.330Z,71.46
2019-01-23T17:59:39.754Z,71.62
2019-01-23T18:02:10.261Z,71.52
2019-01-23T18:04:40.704Z,72.23
2019-01-23T18:07:11.126Z,71.78
2019-01-23T18:09:41.543Z,71.80
2019-01-23T18:12:12.000Z,72.19
2019-01-23T18:14:48.879Z,72.53
2019-01-23T18:17:14.564Z,72.37
2019-01-23T18:19:45.020Z,72.30
2019-01-23T18:22:15.407Z,71.79
2019-01-23T18:24:45.859Z,71.94
2019-01-23T18:27:16.317Z,72.60
2019-01-23T18:29:47.004Z,72.62
2019-01-23T18:32:17.534Z,72.81
2019-01-23T18:35:17.741Z,72.65
2019-01-23T18:38:14.847Z,72.93
2019-01-23T18:41:16.268Z,72.91
2019-01-23T18:44:23.330Z,72.83
2019-01-23T18:47:09.554Z,73.23
2019-01-23T18:50:25.007Z,72.86
2019-01-23T18:52:55.431Z,73.44
2019-01-23T18:55:27.142Z,73.70
2019-01-23T18:57:57.609Z,73.68
2019-01-23T19:00:28.271Z,73.71
2019-01-23T19:02:58.687Z,74.32
2019-01-23T19:05:29.312Z,73.89
2019-01-23T19:08:00.029Z,73.59
2019-01-23T19:10:30.525Z,73.72
2019-01-23T19:13:01.037Z,73.38
2019-01-23T19:15:31.598Z,73.97
2019-01-23T19:18:02.148Z,73.68
2019-01-23T19:20:32.674Z,73.96
2019-01-23T19:23:03.226Z,73.77
2019-01-23T19:25:33.686Z,73.80
2019-01-23T19:28:04.357Z,73.63
2019-01-23T19:30:35.017Z,73.52
2019-01-23T19:33:05.943Z,73.41
2019-01-23T19:35:36.498Z,73.60
2019-01-23T19:38:07.128Z,73.49
2019-01-23T19:40:37.549Z,73.47
2019-01-23T19:43:07.995Z,73.76
2019-01-23T19:45:38.451Z,73.66
2019-01-23T19:48:09.119Z,73.49
2019-01-23T19:50:39.593Z,73.46
2019-01-23T19:53:10.065Z,73.36
2019-01-23T19:55:40.472Z,73.33
2019-01-23T19:58:10.922Z,73.48
2019-01-23T20:00:41.377Z,73.55
2019-01-23T20:03:11.834Z,73.79
2019-01-23T20:05:42.462Z,74.00
2019-01-23T20:08:13.019Z,73.99
2019-01-23T20:10:43.538Z,73.87
2019-01-23T20:13:14.002Z,73.86
2019-01-23T20:15:44.471Z,73.87
2019-01-23T20:18:14.892Z,73.93
2019-01-23T20:20:45.355Z,73.87
2019-01-23T20:23:15.835Z,73.96
2019-01-23T20:25:46.693Z,74.19
2019-01-23T20:28:17.122Z,74.04
2019-01-23T20:30:47.768Z,74.03
2019-01-23T20:33:18.203Z,74.11
2019-01-23T20:35:48.768Z,74.68
2019-01-23T20:38:19.232Z,74.32
2019-01-23T20:40:49.641Z,74.41
2019-01-23T20:43:20.063Z,74.29
2019-01-23T20:45:50.464Z,74.63
2019-01-23T20:48:21.012Z,74.65
2019-01-23T20:50:51.428Z,74.38
2019-01-23T20:53:21.885Z,74.43
2019-01-23T20:55:52.357Z,74.63
2019-01-23T20:58:22.843Z,74.75
2019-01-23T21:00:53.295Z,74.78
2019-01-23T21:03:23.769Z,75.54
2019-01-23T21:05:54.194Z,76.10
2019-01-23T21:08:24.607Z,76.11
2019-01-23T21:10:55.099Z,76.25
2019-01-23T21:13:25.698Z,76.22
2019-01-23T21:15:56.120Z,76.07
2019-01-23T21:18:26.686Z,75.93
2019-01-23T21:20:57.099Z,76.02
2019-01-23T21:23:27.551Z,75.84
2019-01-23T21:25:58.000Z,75.72
2019-01-23T21:28:28.426Z,75.37
2019-01-23T21:30:58.876Z,74.92
2019-01-23T21:33:29.284Z,75.22
2019-01-23T21:35:59.872Z,75.56
2019-01-23T21:38:30.343Z,75.15
2019-01-23T21:41:00.797Z,75.73
2019-01-23T21:43:31.216Z,75.57
2019-01-23T21:46:01.693Z,75.32
2019-01-23T21:48:32.123Z,75.45
2019-01-23T21:51:02.585Z,75.38
2019-01-23T21:53:33.107Z,75.20
2019-01-23T21:56:03.570Z,75.19
2019-01-23T21:58:33.987Z,75.35
2019-01-23T22:01:04.645Z,74.96
2019-01-23T22:03:35.318Z,75.35
2019-01-23T22:06:05.973Z,75.19
2019-01-23T22:08:36.492Z,74.96
2019-01-23T22:11:06.904Z,74.41
2019-01-23T22:13:37.323Z,74.47
2019-01-23T22:16:07.740Z,74.74
2019-01-23T22:18:38.186Z,74.94
2019-01-23T22:21:08.592Z,75.00
2019-01-23T22:23:39.052Z,74.81
2019-01-23T22:26:09.467Z,74.83
2019-01-23T22:28:39.895Z,74.68
2019-01-23T22:31:10.321Z,74.57
2019-01-23T22:33:40.770Z,74.71
2019-01-23T22:36:11.275Z,74.71
2019-01-23T22:38:41.724Z,74.58
2019-01-23T22:41:12.142Z,74.62
2019-01-23T22:43:42.602Z,74.47
2019-01-23T22:46:13.023Z,74.37
2019-01-23T22:48:43.481Z,74.31
2019-01-23T22:51:13.906Z,74.18
2019-01-23T22:53:44.363Z,74.71
2019-01-23T22:56:14.811Z,74.76
2019-01-23T22:58:45.274Z,74.63
2019-01-23T23:01:29.420Z,75.56
2019-01-23T23:04:03.532Z,75.19
2019-01-23T23:06:32.964Z,75.08
2019-01-23T23:09:04.831Z,74.91
2019-01-23T23:11:35.285Z,74.81
2019-01-23T23:14:06.415Z,74.55
2019-01-23T23:16:36.831Z,74.61
2019-01-23T23:19:07.298Z,74.86
2019-01-23T23:21:37.706Z,74.98
2019-01-23T23:24:08.154Z,75.05
2019-01-23T23:26:38.562Z,74.54
2019-01-23T23:29:09.022Z,74.63
2019-01-23T23:31:39.445Z,74.65
2019-01-23T23:34:10.288Z,75.06
2019-01-23T23:36:40.716Z,74.58
2019-01-23T23:39:11.234Z,74.95
2019-01-23T23:41:41.697Z,75.10
2019-01-23T23:44:12.156Z,74.98
2019-01-23T23:46:42.562Z,75.46
2019-01-23T23:49:13.025Z,76.17
2019-01-23T23:51:43.475Z,76.02
2019-01-23T23:54:14.075Z,75.86
2019-01-23T23:56:44.491Z,75.98
2019-01-23T23:59:15.046Z,76.85
